Time;durP1;ratioP1;P1;durP2;ratioP2;P2;SDS_P1;SDS_P2;PMS_P1;PMS_P2;Temp;Humidity;BMP_temperature;BMP_pressure;BME280_temperature;BME280_humidity;BME280_pressure;Samples;Min_cycle;Max_cycle;Signal;HPM_P1;HPM_P2
2022/09/19 00:01:32;;;;;;;11.20;2.55;;;11.70;88.00;;;;;;4910244;28;20039;-90
2022/09/19 00:04:07;;;;;;;9.52;2.38;;;11.70;88.10;;;;;;4924933;28;20048;-90
2022/09/19 00:06:38;;;;;;;8.40;2.25;;;11.60;88.20;;;;;;4905305;29;20135;-90
2022/09/19 00:09:06;;;;;;;9.57;2.30;;;11.70;88.30;;;;;;4924852;29;20032;-90
2022/09/19 00:11:32;;;;;;;7.47;2.67;;;11.70;88.30;;;;;;4934678;29;20780;-90
2022/09/19 00:13:59;;;;;;;9.90;2.72;;;11.70;88.30;;;;;;4934533;29;20036;-89
2022/09/19 00:16:30;;;;;;;11.48;2.58;;;11.70;88.30;;;;;;4930271;29;20100;-89
2022/09/19 00:18:58;;;;;;;12.73;2.97;;;11.70;88.30;;;;;;4915849;29;20031;-89
2022/09/19 00:21:27;;;;;;;10.35;2.80;;;11.70;88.30;;;;;;4931887;29;20036;-89
2022/09/19 00:26:39;;;;;;;10.35;2.88;;;11.60;88.20;;;;;;4926092;29;20407;-90
2022/09/19 00:29:07;;;;;;;8.15;2.72;;;11.60;88.20;;;;;;4907776;29;20091;-90
2022/09/19 00:31:33;;;;;;;12.95;3.47;;;11.50;88.30;;;;;;4902269;29;20040;-90
2022/09/19 00:34:00;;;;;;;11.90;3.10;;;11.50;88.20;;;;;;4905649;29;20044;-89
2022/09/19 00:36:27;;;;;;;10.57;3.28;;;11.50;88.20;;;;;;4907918;29;20036;-89
2022/09/19 00:38:53;;;;;;;15.27;3.10;;;11.40;88.20;;;;;;4904735;29;20075;-89
2022/09/19 00:41:25;;;;;;;10.68;3.38;;;11.30;88.20;;;;;;4918005;29;20040;-90
2022/09/19 00:43:52;;;;;;;13.60;4.15;;;11.30;88.30;;;;;;4908308;29;20037;-89
2022/09/19 00:46:20;;;;;;;10.60;3.30;;;11.20;88.30;;;;;;4897058;29;20067;-89
2022/09/19 00:49:05;;;;;;;12.30;3.40;;;11.10;88.30;;;;;;4898943;29;20048;-90
2022/09/19 00:51:38;;;;;;;13.55;2.83;;;11.10;88.40;;;;;;4921333;29;20032;-90
2022/09/19 00:54:11;;;;;;;8.88;2.83;;;11.10;88.50;;;;;;4920681;29;20507;-90
2022/09/19 00:56:42;;;;;;;9.38;3.13;;;11.10;88.50;;;;;;4901295;29;20488;-90
2022/09/19 00:59:09;;;;;;;12.73;3.38;;;11.10;88.60;;;;;;4919590;29;20439;-90
2022/09/19 01:01:35;;;;;;;9.02;2.63;;;11.10;88.60;;;;;;4918274;29;20078;-90
2022/09/19 01:04:01;;;;;;;10.38;2.97;;;11.10;88.60;;;;;;4907413;29;20028;-90
2022/09/19 01:07:09;;;;;;;9.82;3.08;;;11.10;88.60;;;;;;4921680;29;20048;-90
2022/09/19 01:09:48;;;;;;;8.35;2.65;;;11.10;88.60;;;;;;4868025;29;20057;-91
2022/09/19 01:12:47;;;;;;;12.00;3.00;;;11.10;88.60;;;;;;4852972;29;20493;-89
2022/09/19 01:15:28;;;;;;;7.55;2.63;;;11.00;88.60;;;;;;4893291;29;20728;-89
2022/09/19 01:17:58;;;;;;;8.30;2.75;;;11.00;88.60;;;;;;4905895;29;21271;-89
2022/09/19 01:24:46;;;;;;;11.98;3.08;;;10.90;88.80;;;;;;4904656;29;20105;-90
2022/09/19 01:27:33;;;;;;;9.98;2.47;;;10.80;88.80;;;;;;4848409;29;20044;-89
2022/09/19 01:30:06;;;;;;;7.95;2.78;;;10.80;88.80;;;;;;4924308;29;20044;-90
2022/09/19 01:32:51;;;;;;;7.00;3.00;;;10.70;88.80;;;;;;4909622;29;20040;-90
2022/09/19 01:35:24;;;;;;;5.63;2.63;;;10.70;88.80;;;;;;4905862;29;20052;-89
2022/09/19 01:38:05;;;;;;;9.80;3.30;;;10.60;88.90;;;;;;4923376;29;20376;-90
2022/09/19 01:40:33;;;;;;;10.80;3.45;;;10.60;88.90;;;;;;4922838;29;20092;-90
2022/09/19 01:42:59;;;;;;;8.45;2.75;;;10.60;89.00;;;;;;4921550;29;20040;-90
2022/09/19 01:45:36;;;;;;;9.27;3.30;;;10.50;89.00;;;;;;4906024;29;20036;-89
2022/09/19 01:48:35;;;;;;;10.70;3.17;;;10.50;89.10;;;;;;4902170;29;20040;-89
2022/09/19 01:51:21;;;;;;;8.63;2.83;;;10.40;89.00;;;;;;4897945;29;20032;-89
2022/09/19 01:54:13;;;;;;;9.50;2.80;;;10.30;88.90;;;;;;4901470;29;20051;-90
2022/09/19 01:56:43;;;;;;;9.30;2.78;;;10.30;89.00;;;;;;4909690;29;20490;-90
2022/09/19 01:59:42;;;;;;;7.95;2.75;;;10.30;89.00;;;;;;4919374;29;20047;-90
2022/09/19 02:02:22;;;;;;;11.40;3.58;;;10.20;89.10;;;;;;4918204;29;20044;-90
2022/09/19 02:05:09;;;;;;;10.30;3.00;;;10.20;89.10;;;;;;4906803;29;20035;-90
2022/09/19 02:07:41;;;;;;;12.82;3.35;;;10.10;89.20;;;;;;4918090;29;20071;-90
2022/09/19 02:10:13;;;;;;;9.02;3.05;;;10.10;89.10;;;;;;4919569;29;20390;-90
2022/09/19 02:12:41;;;;;;;11.02;3.42;;;10.10;89.10;;;;;;4923004;29;20072;-90
2022/09/19 02:15:11;;;;;;;8.38;3.13;;;10.10;89.20;;;;;;4907510;29;20032;-90
2022/09/19 02:17:44;;;;;;;12.15;3.20;;;10.10;89.30;;;;;;4907099;29;20029;-90
2022/09/19 02:20:20;;;;;;;10.85;3.63;;;10.00;89.20;;;;;;4904109;29;20041;-90
2022/09/19 02:22:51;;;;;;;9.48;3.58;;;10.00;89.20;;;;;;4902603;29;20040;-90
2022/09/19 02:25:24;;;;;;;11.75;4.25;;;10.00;89.20;;;;;;4903893;29;20863;-90
2022/09/19 02:28:06;;;;;;;9.55;3.05;;;9.90;89.10;;;;;;4919849;29;20137;-90
2022/09/19 02:30:33;;;;;;;9.55;3.38;;;9.90;89.10;;;;;;4918309;28;20048;-90
2022/09/19 02:33:06;;;;;;;10.55;3.67;;;9.90;89.10;;;;;;4922072;29;20123;-90
2022/09/19 02:35:46;;;;;;;11.85;3.75;;;9.90;89.20;;;;;;4920108;29;20044;-90
2022/09/19 02:38:33;;;;;;;10.10;3.80;;;9.90;89.20;;;;;;4920403;29;20152;-90
2022/09/19 02:41:21;;;;;;;8.75;3.22;;;9.90;89.10;;;;;;4905042;29;20044;-90
2022/09/19 02:44:06;;;;;;;8.00;3.47;;;9.80;89.10;;;;;;4918152;29;20381;-90
2022/09/19 02:46:42;;;;;;;9.02;3.55;;;9.80;89.20;;;;;;4921911;29;20610;-89
2022/09/19 02:49:17;;;;;;;9.23;3.28;;;9.80;89.30;;;;;;4912720;29;21633;-90
2022/09/19 02:51:50;;;;;;;13.85;3.45;;;9.80;89.30;;;;;;4906756;29;20040;-90
2022/09/19 02:54:21;;;;;;;11.00;3.85;;;9.80;89.30;;;;;;4908180;29;20036;-89
2022/09/19 02:56:49;;;;;;;12.90;4.43;;;9.80;89.30;;;;;;4907549;29;20140;-90
2022/09/19 02:59:21;;;;;;;11.63;4.45;;;9.80;89.30;;;;;;4904375;29;20033;-90
2022/09/19 03:01:56;;;;;;;12.07;4.30;;;9.80;89.20;;;;;;4906957;29;20032;-89
2022/09/19 03:04:31;;;;;;;12.23;4.72;;;9.70;89.20;;;;;;4918428;29;20040;-90
2022/09/19 03:07:05;;;;;;;;;;;9.70;89.20;;;;;;4920820;29;20052;-91
2022/09/19 03:09:31;;;;;;;12.88;5.28;;;9.70;89.20;;;;;;4921566;29;20827;-90
2022/09/19 03:12:18;;;;;;;12.60;5.75;;;9.60;89.10;;;;;;4904209;29;20044;-90
2022/09/19 03:14:45;;;;;;;15.02;5.85;;;9.60;89.20;;;;;;4914588;29;20051;-90
2022/09/19 03:17:16;;;;;;;10.73;6.15;;;9.60;89.30;;;;;;4902602;29;20040;-88
2022/09/19 03:19:48;;;;;;;10.48;6.40;;;9.60;89.20;;;;;;4906204;29;20044;-90
2022/09/19 03:22:14;;;;;;;11.38;5.80;;;9.60;89.20;;;;;;4920869;29;20040;-87
2022/09/19 03:24:42;;;;;;;10.80;5.50;;;9.60;89.20;;;;;;4907510;29;20076;-89
2022/09/19 03:27:08;;;;;;;10.57;5.35;;;9.50;89.10;;;;;;4893861;29;20072;-89
2022/09/19 03:29:35;;;;;;;10.82;5.15;;;9.40;89.10;;;;;;4899509;29;20107;-89
2022/09/19 03:32:01;;;;;;;9.90;4.78;;;9.40;89.10;;;;;;4900394;29;20048;-89
2022/09/19 03:34:32;;;;;;;9.10;4.93;;;9.40;89.30;;;;;;4901471;29;20047;-89
2022/09/19 03:36:59;;;;;;;12.10;5.05;;;9.30;89.30;;;;;;4911236;29;20112;-89
2022/09/19 03:39:24;;;;;;;11.63;4.47;;;9.30;89.30;;;;;;4903420;29;20120;-89
2022/09/19 03:41:51;;;;;;;10.55;4.20;;;9.30;89.50;;;;;;4909197;29;21381;-89
2022/09/19 03:44:19;;;;;;;9.27;3.97;;;9.30;89.60;;;;;;4902049;29;20036;-89
2022/09/19 03:46:46;;;;;;;9.15;4.47;;;9.30;89.50;;;;;;4924069;29;20060;-88
2022/09/19 03:49:12;;;;;;;9.07;4.15;;;9.20;89.50;;;;;;4923266;29;20059;-90
2022/09/19 03:51:38;;;;;;;9.38;3.65;;;9.20;89.60;;;;;;4921859;29;20119;-89
2022/09/19 03:54:05;;;;;;;10.77;4.15;;;9.10;89.60;;;;;;4908657;29;20040;-90
2022/09/19 03:56:31;;;;;;;10.38;4.63;;;9.20;89.80;;;;;;4924120;29;20084;-89
2022/09/19 03:58:59;;;;;;;9.90;3.95;;;9.10;89.90;;;;;;4905072;29;20051;-90
2022/09/19 04:01:25;;;;;;;10.80;4.32;;;9.10;90.00;;;;;;4910254;29;20051;-89
2022/09/19 04:03:51;;;;;;;11.50;4.22;;;9.10;90.00;;;;;;4913018;29;20384;-90
2022/09/19 04:06:17;;;;;;;10.43;4.57;;;9.20;90.00;;;;;;4930135;29;20036;-89
2022/09/19 04:08:43;;;;;;;15.52;5.35;;;9.10;90.00;;;;;;4910201;29;21812;-89
2022/09/19 04:11:09;;;;;;;12.40;5.47;;;9.10;90.10;;;;;;4911696;29;20502;-89
2022/09/19 04:13:35;;;;;;;9.60;4.93;;;9.10;90.00;;;;;;4913398;29;20543;-89
2022/09/19 04:16:01;;;;;;;12.48;5.30;;;9.10;90.00;;;;;;4911630;29;20096;-88
2022/09/19 04:18:28;;;;;;;11.98;5.30;;;9.10;90.10;;;;;;4911251;29;20036;-89
2022/09/19 04:20:55;;;;;;;12.73;5.13;;;9.10;90.10;;;;;;4912136;29;20717;-88
2022/09/19 04:23:22;;;;;;;11.88;4.30;;;9.00;90.10;;;;;;4910440;29;20044;-88
2022/09/19 04:25:48;;;;;;;10.43;4.38;;;9.00;90.10;;;;;;4909492;29;20360;-89
2022/09/19 04:28:16;;;;;;;11.02;4.97;;;9.00;90.10;;;;;;4924880;29;20051;-89
2022/09/19 04:30:43;;;;;;;11.18;4.32;;;9.00;90.10;;;;;;4924930;28;20059;-89
2022/09/19 04:33:10;;;;;;;10.63;4.78;;;9.00;90.10;;;;;;4908446;29;20115;-88
2022/09/19 04:35:37;;;;;;;13.55;4.70;;;8.90;90.20;;;;;;4925465;28;20033;-89
2022/09/19 04:38:08;;;;;;;12.82;4.43;;;8.90;90.20;;;;;;4909503;29;20074;-89
2022/09/19 04:40:41;;;;;;;9.55;4.35;;;8.90;90.20;;;;;;4924445;28;20071;-89
2022/09/19 04:43:10;;;;;;;14.25;4.72;;;8.90;90.10;;;;;;4925153;29;20044;-89
2022/09/19 04:45:37;;;;;;;8.35;3.85;;;8.90;90.10;;;;;;4908541;29;20475;-87
2022/09/19 04:48:06;;;;;;;11.02;3.80;;;8.90;90.00;;;;;;4918529;29;20360;-89
2022/09/19 04:50:36;;;;;;;10.00;3.90;;;8.80;90.00;;;;;;4926535;29;20032;-89
2022/09/19 04:53:03;;;;;;;10.57;4.18;;;8.80;90.10;;;;;;4926378;29;20444;-88
2022/09/19 04:55:29;;;;;;;8.55;3.88;;;8.80;90.10;;;;;;4909828;29;20448;-89
2022/09/19 04:58:00;;;;;;;11.68;4.50;;;8.80;90.10;;;;;;4907229;29;20396;-89
2022/09/19 05:00:38;;;;;;;13.60;4.57;;;8.80;90.20;;;;;;4922826;29;20049;-89
2022/09/19 05:03:12;;;;;;;11.75;4.20;;;8.80;90.20;;;;;;4905986;29;20036;-89
2022/09/19 05:05:44;;;;;;;8.63;4.10;;;8.80;90.00;;;;;;4922341;28;20067;-88
2022/09/19 05:08:12;;;;;;;13.88;4.45;;;8.80;90.10;;;;;;4906523;29;20375;-87
2022/09/19 05:10:42;;;;;;;10.82;4.65;;;8.80;90.20;;;;;;4922218;28;20035;-88
2022/09/19 05:13:09;;;;;;;8.15;3.70;;;8.80;90.20;;;;;;4907593;29;20040;-87
2022/09/19 05:15:36;;;;;;;8.98;4.05;;;8.80;90.20;;;;;;4910032;29;20404;-88
2022/09/19 05:18:01;;;;;;;9.25;4.43;;;8.80;90.20;;;;;;4909070;29;20045;-87
2022/09/19 05:20:29;;;;;;;8.35;4.25;;;8.90;90.10;;;;;;4907975;29;20032;-87
2022/09/19 05:22:59;;;;;;;10.85;4.35;;;8.80;90.10;;;;;;4907443;29;20041;-87
2022/09/19 05:25:30;;;;;;;8.00;4.38;;;8.90;90.20;;;;;;4905835;29;20464;-87
2022/09/19 05:28:05;;;;;;;11.75;5.53;;;9.00;90.20;;;;;;4908531;29;20124;-87
2022/09/19 05:30:33;;;;;;;12.48;4.53;;;9.10;90.30;;;;;;4921873;29;20135;-88
2022/09/19 05:32:59;;;;;;;12.98;4.72;;;9.10;90.30;;;;;;4908123;29;20029;-87
2022/09/19 05:35:26;;;;;;;8.45;4.47;;;9.10;90.20;;;;;;4921784;29;20032;-87
2022/09/19 05:37:52;;;;;;;13.27;4.45;;;9.10;90.10;;;;;;4911107;29;20028;-87
2022/09/19 05:41:19;;;;;;;10.98;4.82;;;9.20;90.10;;;;;;4916087;28;20103;-87
2022/09/19 05:43:44;;;;;;;12.23;4.63;;;9.30;90.20;;;;;;4904877;29;20051;-87
2022/09/19 05:46:10;;;;;;;13.43;5.28;;;9.40;90.30;;;;;;4925652;29;20044;-87
2022/09/19 05:48:37;;;;;;;11.30;5.00;;;9.40;90.20;;;;;;4910132;28;20376;-88
2022/09/19 05:51:03;;;;;;;15.23;5.38;;;9.60;90.30;;;;;;4923239;29;20040;-88
2022/09/19 05:56:13;;;;;;;12.85;6.50;;;9.70;90.40;;;;;;4908203;29;20039;-88
2022/09/19 05:58:39;;;;;;;17.17;7.82;;;9.70;90.30;;;;;;4907530;29;20044;-87
2022/09/19 06:01:09;;;;;;;14.68;9.73;;;9.80;90.40;;;;;;4909280;29;20038;-87
2022/09/19 06:03:35;;;;;;;18.80;11.52;;;9.90;90.50;;;;;;4907409;28;20048;-87
2022/09/19 06:06:09;;;;;;;27.55;12.90;;;10.00;90.50;;;;;;4903903;29;20061;-87
2022/09/19 06:08:34;;;;;;;19.65;13.25;;;10.10;90.50;;;;;;4919620;28;20431;-88
2022/09/19 06:11:00;;;;;;;21.73;12.25;;;10.10;90.50;;;;;;4920973;29;20048;-87
2022/09/19 06:14:13;;;;;;;21.73;12.35;;;10.20;90.50;;;;;;4920288;28;20047;-87
2022/09/19 06:16:12;;;;;;;18.20;10.73;;;10.30;90.50;;;;;;4907890;29;20047;-87
2022/09/19 06:18:37;;;;;;;14.77;9.27;;;10.50;90.30;;;;;;4909361;29;20040;-87
2022/09/19 06:21:03;;;;;;;18.80;9.05;;;10.50;90.30;;;;;;4912225;29;20369;-86
2022/09/19 06:23:29;;;;;;;18.77;8.90;;;10.60;90.20;;;;;;4906738;28;20778;-88
2022/09/19 06:25:55;;;;;;;17.58;7.70;;;10.80;90.10;;;;;;4908936;29;20035;-87
2022/09/19 06:28:21;;;;;;;14.82;8.15;;;10.90;89.90;;;;;;4905568;29;20056;-87
2022/09/19 06:30:46;;;;;;;14.30;7.10;;;11.10;89.80;;;;;;4908246;29;20044;-87
2022/09/19 06:33:12;;;;;;;14.00;7.03;;;11.30;89.30;;;;;;4907158;29;20451;-87
2022/09/19 06:35:38;;;;;;;15.57;7.03;;;11.50;88.80;;;;;;4920037;29;20036;-86
2022/09/19 06:38:08;;;;;;;12.57;6.72;;;11.60;88.30;;;;;;4907137;29;20047;-86
2022/09/19 06:40:38;;;;;;;14.73;7.50;;;11.60;88.20;;;;;;4915829;28;20047;-87
2022/09/19 06:43:05;;;;;;;13.68;6.40;;;11.60;88.30;;;;;;4906965;29;20036;-87
2022/09/19 06:45:38;;;;;;;15.32;6.25;;;11.60;88.10;;;;;;4922169;28;20040;-87
2022/09/19 06:48:05;;;;;;;17.35;7.70;;;11.70;88.10;;;;;;4905543;29;20104;-87
2022/09/19 06:50:31;;;;;;;14.98;7.70;;;11.60;88.00;;;;;;4899003;28;20135;-87
2022/09/19 06:52:58;;;;;;;17.48;7.60;;;11.60;88.20;;;;;;4907869;29;20060;-87
2022/09/19 06:55:25;;;;;;;19.60;8.73;;;11.70;88.30;;;;;;4907204;29;20048;-87
2022/09/19 06:58:04;;;;;;;13.90;8.52;;;11.70;88.20;;;;;;4910743;29;20520;-87
2022/09/19 07:00:36;;;;;;;19.08;7.75;;;11.70;88.40;;;;;;4910371;29;20473;-87
2022/09/19 07:03:03;;;;;;;17.73;7.38;;;11.80;88.20;;;;;;4923180;29;20147;-86
2022/09/19 07:05:34;;;;;;;20.58;6.40;;;11.90;88.10;;;;;;4901680;29;20048;-87
2022/09/19 07:08:01;;;;;;;16.63;6.03;;;12.00;87.80;;;;;;4901696;29;20055;-87
2022/09/19 07:10:27;;;;;;;17.40;5.97;;;12.10;87.60;;;;;;4917096;28;20528;-87
2022/09/19 07:13:01;;;;;;;12.77;4.68;;;12.10;87.60;;;;;;4903612;29;20049;-87
2022/09/19 07:15:34;;;;;;;13.70;5.25;;;12.20;87.50;;;;;;4922195;28;20123;-87
2022/09/19 07:18:05;;;;;;;13.68;4.70;;;12.20;87.40;;;;;;4923421;29;20139;-87
2022/09/19 07:20:30;;;;;;;14.35;5.25;;;12.30;87.30;;;;;;4919890;28;20115;-87
2022/09/19 07:23:18;;;;;;;12.13;4.57;;;12.40;87.10;;;;;;4907845;29;20492;-87
2022/09/19 07:25:44;;;;;;;12.23;4.18;;;12.50;87.00;;;;;;4929467;28;20060;-87
2022/09/19 07:28:15;;;;;;;17.08;4.20;;;12.60;87.00;;;;;;4930502;29;20071;-87
2022/09/19 07:30:43;;;;;;;13.43;4.35;;;12.70;86.70;;;;;;4910196;29;20036;-85
2022/09/19 07:33:11;;;;;;;11.98;4.43;;;12.80;86.50;;;;;;4909984;29;20032;-86
2022/09/19 07:35:41;;;;;;;11.90;4.00;;;12.90;86.40;;;;;;4910453;29;20074;-86
2022/09/19 07:38:11;;;;;;;16.02;4.30;;;13.00;86.10;;;;;;4910492;29;20036;-87
2022/09/19 07:40:37;;;;;;;9.90;3.85;;;13.10;85.60;;;;;;4911653;29;20052;-86
2022/09/19 07:43:04;;;;;;;15.73;4.03;;;13.10;85.30;;;;;;4925017;29;20043;-86
2022/09/19 07:45:32;;;;;;;15.20;3.65;;;13.30;85.20;;;;;;4923888;28;20033;-86
2022/09/19 07:47:58;;;;;;;11.70;3.78;;;13.50;84.80;;;;;;4908643;29;20044;-86
2022/09/19 07:50:24;;;;;;;13.30;3.33;;;13.60;84.30;;;;;;4908385;29;20091;-86
2022/09/19 07:53:04;;;;;;;8.68;2.97;;;13.60;83.90;;;;;;4923744;29;20089;-87
2022/09/19 07:55:30;;;;;;;13.57;3.50;;;13.70;83.80;;;;;;4908614;29;20063;-87
2022/09/19 07:57:59;;;;;;;10.10;3.13;;;13.70;83.90;;;;;;4924738;29;20036;-87
2022/09/19 08:00:26;;;;;;;8.70;2.55;;;13.80;83.30;;;;;;4909381;29;20032;-87
2022/09/19 08:03:01;;;;;;;12.85;2.38;;;13.80;83.20;;;;;;4907241;29;20043;-86
2022/09/19 08:05:31;;;;;;;10.38;2.47;;;13.80;82.70;;;;;;4922699;28;20028;-86
2022/09/19 08:07:58;;;;;;;14.10;3.10;;;13.80;82.70;;;;;;4921296;29;20076;-87
2022/09/19 08:10:24;;;;;;;13.50;3.53;;;13.80;82.40;;;;;;4910637;29;20036;-87
2022/09/19 08:12:50;;;;;;;12.20;3.33;;;13.80;82.80;;;;;;4925227;29;20503;-87
2022/09/19 08:15:17;;;;;;;15.27;3.15;;;13.80;83.40;;;;;;4905616;29;20032;-87
2022/09/19 08:17:57;;;;;;;13.60;3.15;;;13.80;83.80;;;;;;4925623;29;20036;-87
2022/09/19 08:20:25;;;;;;;11.50;2.80;;;13.80;84.20;;;;;;4925398;29;20047;-87
2022/09/19 08:23:03;;;;;;;13.18;3.63;;;13.80;84.20;;;;;;4905224;29;20083;-87
2022/09/19 08:25:32;;;;;;;8.25;2.22;;;13.80;84.30;;;;;;4918929;29;20046;-87
2022/09/19 08:27:58;;;;;;;12.77;3.60;;;13.80;84.80;;;;;;4908799;29;20511;-87
2022/09/19 08:30:26;;;;;;;12.15;3.55;;;13.80;84.80;;;;;;4907790;29;20048;-87
2022/09/19 08:32:55;;;;;;;12.13;3.17;;;13.80;84.80;;;;;;4910073;29;20028;-87
2022/09/19 08:35:21;;;;;;;11.05;3.20;;;13.80;84.80;;;;;;4911121;29;20051;-87
2022/09/19 08:37:52;;;;;;;9.63;2.45;;;13.90;84.60;;;;;;4900504;29;20044;-87
2022/09/19 08:40:26;;;;;;;11.20;3.50;;;14.00;83.60;;;;;;4897498;29;20458;-87
2022/09/19 08:43:17;;;;;;;10.80;2.38;;;14.00;83.90;;;;;;4908697;29;20036;-87
2022/09/19 08:46:17;;;;;;;10.32;2.47;;;14.10;84.10;;;;;;4923495;29;20032;-87
2022/09/19 08:48:53;;;;;;;9.60;2.72;;;14.10;82.90;;;;;;4922673;28;20057;-87
2022/09/19 08:51:30;;;;;;;12.13;3.10;;;14.20;82.70;;;;;;4907367;29;20131;-87
2022/09/19 08:54:11;;;;;;;12.77;3.08;;;14.30;82.60;;;;;;4922155;29;20041;-87
2022/09/19 08:56:38;;;;;;;7.25;2.35;;;14.40;82.10;;;;;;4909405;29;20124;-87
2022/09/19 08:59:10;;;;;;;7.43;2.35;;;14.60;82.70;;;;;;4907202;29;20547;-86
2022/09/19 09:01:38;;;;;;;13.45;3.25;;;14.90;81.70;;;;;;4907548;29;20036;-87
2022/09/19 09:04:11;;;;;;;11.18;2.38;;;15.00;81.60;;;;;;4905852;29;20051;-87
2022/09/19 09:07:15;;;;;;;9.52;2.47;;;15.00;81.70;;;;;;4909334;29;20147;-87
2022/09/19 09:10:01;;;;;;;10.48;2.67;;;15.10;81.70;;;;;;4907728;29;20048;-88
2022/09/19 09:12:47;;;;;;;13.75;2.40;;;15.00;81.10;;;;;;4904710;29;20048;-87
2022/09/19 09:15:58;;;;;;;11.27;2.75;;;15.10;80.90;;;;;;4922125;28;20067;-87
2022/09/19 09:18:44;;;;;;;13.57;2.75;;;14.90;80.10;;;;;;4905538;28;20036;-87
2022/09/19 09:21:41;;;;;;;12.82;3.17;;;14.80;80.40;;;;;;4904830;29;20033;-87
2022/09/19 09:24:20;;;;;;;12.77;3.03;;;14.90;80.30;;;;;;4921583;28;20036;-87
2022/09/19 09:26:50;;;;;;;14.27;2.88;;;15.00;80.20;;;;;;4924184;29;20035;-87
2022/09/19 09:29:23;;;;;;;13.52;2.40;;;15.20;79.00;;;;;;4906694;29;20052;-85
2022/09/19 09:32:14;;;;;;;10.00;2.85;;;15.30;77.80;;;;;;4905814;29;20630;-87
2022/09/19 09:34:56;;;;;;;14.13;2.95;;;15.80;78.30;;;;;;4922883;29;20481;-86
2022/09/19 09:37:33;;;;;;;17.58;3.60;;;16.30;75.90;;;;;;4917114;29;20191;-86
2022/09/19 09:40:12;;;;;;;8.75;2.30;;;16.60;73.60;;;;;;4906493;29;20491;-87
2022/09/19 09:43:05;;;;;;;14.82;2.80;;;16.80;72.10;;;;;;4905438;29;20036;-86
2022/09/19 09:45:43;;;;;;;11.00;2.40;;;17.00;71.40;;;;;;4914484;29;20040;-87
2022/09/19 09:48:20;;;;;;;10.52;1.92;;;17.10;69.60;;;;;;4938324;29;20044;-87
2022/09/19 09:51:19;;;;;;;9.32;2.17;;;17.50;69.10;;;;;;4917018;29;20049;-87
2022/09/19 09:54:05;;;;;;;10.50;1.88;;;17.70;67.10;;;;;;4906513;28;20032;-87
2022/09/19 09:56:49;;;;;;;9.52;1.90;;;17.80;65.70;;;;;;4904520;29;20441;-86
2022/09/19 10:05:58;;;;;;;9.13;1.92;;;17.60;63.80;;;;;;4907041;29;20054;-86
2022/09/19 10:08:37;;;;;;;5.55;1.70;;;17.60;60.70;;;;;;4905796;28;20048;-87
2022/09/19 10:11:20;;;;;;;10.43;1.75;;;17.40;61.10;;;;;;4907862;29;20638;-86
2022/09/19 10:13:59;;;;;;;12.23;1.65;;;17.10;63.00;;;;;;4907621;29;20523;-85
2022/09/19 10:16:26;;;;;;;7.50;1.52;;;16.90;64.00;;;;;;4910109;29;20036;-87
2022/09/19 10:18:57;;;;;;;10.38;2.05;;;16.60;64.30;;;;;;4909831;29;20036;-86
2022/09/19 10:21:26;;;;;;;7.78;1.42;;;16.40;64.60;;;;;;4911039;29;20047;-86
2022/09/19 10:23:52;;;;;;;10.05;1.80;;;16.30;64.40;;;;;;4903773;29;20036;-85
2022/09/19 10:26:29;;;;;;;13.25;2.50;;;16.30;65.50;;;;;;4900384;29;20064;-86
2022/09/19 10:29:02;;;;;;;9.00;2.00;;;16.20;65.60;;;;;;4912202;29;20086;-86
2022/09/19 10:31:40;;;;;;;10.40;2.00;;;16.20;66.60;;;;;;4913786;29;20040;-86
2022/09/19 10:34:27;;;;;;;9.88;2.47;;;16.30;66.70;;;;;;4907584;29;20603;-85
2022/09/19 10:36:56;;;;;;;12.90;2.03;;;16.40;67.30;;;;;;4911981;29;20040;-86
2022/09/19 10:39:23;;;;;;;8.02;1.90;;;16.70;67.30;;;;;;4904136;29;20443;-86
2022/09/19 10:45:52;;;;;;;8.45;1.90;;;17.20;64.80;;;;;;4835808;29;20041;-86
2022/09/19 10:48:31;;;;;;;9.57;1.90;;;17.20;63.70;;;;;;4900814;29;20067;-87
2022/09/19 10:51:02;;;;;;;5.53;1.77;;;17.00;64.40;;;;;;4905650;29;20044;-87
2022/09/19 10:53:32;;;;;;;10.98;1.90;;;17.10;64.70;;;;;;4905856;29;20037;-86
2022/09/19 10:56:48;;;;;;;10.43;1.83;;;17.00;63.30;;;;;;4914626;29;20378;-85
2022/09/19 10:59:13;;;;;;;11.27;2.00;;;17.00;63.30;;;;;;4904521;29;20036;-87
2022/09/19 11:01:39;;;;;;;6.57;1.80;;;17.10;62.90;;;;;;4910029;29;20480;-87
2022/09/19 11:04:11;;;;;;;11.73;1.60;;;17.20;62.60;;;;;;4909254;29;20042;-87
2022/09/19 11:06:58;;;;;;;6.90;1.60;;;17.50;61.60;;;;;;4916357;29;20479;-87
2022/09/19 11:09:35;;;;;;;8.98;1.88;;;17.80;60.90;;;;;;4921574;29;20055;-87
2022/09/19 11:12:20;;;;;;;7.30;1.80;;;17.90;59.40;;;;;;4909511;29;20115;-86
2022/09/19 11:14:49;;;;;;;10.05;1.85;;;17.60;60.10;;;;;;4908701;29;20036;-87
2022/09/19 11:17:55;;;;;;;8.77;1.77;;;17.30;60.40;;;;;;4908807;29;20055;-87
2022/09/19 11:20:38;;;;;;;10.70;1.67;;;17.30;61.40;;;;;;4925834;28;21035;-87
2022/09/19 11:23:40;;;;;;;8.40;1.80;;;17.20;60.00;;;;;;4922737;29;20040;-87
2022/09/19 11:26:26;;;;;;;8.75;1.58;;;17.10;59.20;;;;;;4909057;29;20270;-88
2022/09/19 11:29:14;;;;;;;8.40;1.38;;;16.80;59.10;;;;;;4925968;29;20403;-87
2022/09/19 11:31:47;;;;;;;10.88;1.88;;;16.60;59.20;;;;;;4926134;29;20215;-87
2022/09/19 11:34:43;;;;;;;6.32;1.42;;;16.50;60.10;;;;;;4908262;29;20068;-88
2022/09/19 11:37:30;;;;;;;9.30;1.90;;;16.50;59.70;;;;;;4920201;29;20040;-87
2022/09/19 11:40:23;;;;;;;7.03;1.42;;;16.40;60.20;;;;;;4917146;29;20103;-87
2022/09/19 11:42:57;;;;;;;6.55;1.23;;;16.50;61.30;;;;;;4910288;29;20039;-87
2022/09/19 11:45:29;;;;;;;7.05;1.73;;;16.50;61.30;;;;;;4909128;29;20047;-87
2022/09/19 11:48:24;;;;;;;5.80;1.70;;;16.50;61.50;;;;;;4910649;29;20051;-87
2022/09/19 11:51:12;;;;;;;10.20;1.75;;;16.90;61.60;;;;;;4923233;29;20502;-87
2022/09/19 11:53:47;;;;;;;8.95;1.45;;;17.30;59.30;;;;;;4910392;28;20073;-87
2022/09/19 11:56:23;;;;;;;;;;;17.30;57.90;;;;;;4910978;29;20028;-87
2022/09/19 11:59:07;;;;;;;11.20;1.75;;;17.20;58.50;;;;;;4905946;29;19926;-87
2022/09/19 12:01:40;;;;;;;10.52;1.63;;;17.60;58.70;;;;;;4923336;29;20200;-87
2022/09/19 12:04:32;;;;;;;9.68;1.95;;;17.70;58.80;;;;;;4917834;29;20060;-88
2022/09/19 12:07:15;;;;;;;9.57;1.38;;;18.10;57.40;;;;;;4921907;29;20049;-87
2022/09/19 12:09:52;;;;;;;13.15;1.90;;;18.20;56.20;;;;;;4908286;29;20048;-87
2022/09/19 12:12:21;;;;;;;7.63;1.90;;;18.50;57.30;;;;;;4923431;29;20543;-87
2022/09/19 12:15:22;;;;;;;8.35;1.67;;;18.60;55.30;;;;;;4907438;29;20122;-87
2022/09/19 12:18:34;;;;;;;9.77;2.05;;;18.80;56.10;;;;;;4915412;29;20051;-87
2022/09/19 12:21:03;;;;;;;7.07;1.55;;;18.50;54.00;;;;;;4892992;29;20055;-87
2022/09/19 12:26:49;;;;;;;8.23;1.70;;;17.90;56.50;;;;;;4908141;29;20079;-87
2022/09/19 12:29:25;;;;;;;7.93;1.45;;;17.60;58.40;;;;;;4924104;29;20048;-87
2022/09/19 12:31:59;;;;;;;9.70;1.92;;;17.50;58.80;;;;;;4907630;29;20036;-87
2022/09/19 12:34:36;;;;;;;9.20;1.77;;;17.60;58.60;;;;;;4909851;29;20488;-87
2022/09/19 12:37:17;;;;;;;6.90;1.50;;;17.40;60.20;;;;;;4922348;29;20087;-86
2022/09/19 12:40:03;;;;;;;8.25;1.73;;;17.50;60.20;;;;;;4906466;29;20082;-87
2022/09/19 12:42:44;;;;;;;7.13;1.60;;;17.50;58.80;;;;;;4923272;29;20037;-86
2022/09/19 12:45:54;;;;;;;7.00;1.35;;;17.60;60.60;;;;;;4920776;29;20144;-87
2022/09/19 12:48:54;;;;;;;6.70;1.42;;;17.70;59.70;;;;;;4873292;29;20050;-87
2022/09/19 12:51:33;;;;;;;12.35;1.60;;;17.60;59.10;;;;;;4904445;29;20032;-87
2022/09/19 12:54:13;;;;;;;8.27;1.75;;;17.50;59.10;;;;;;4908984;29;20122;-87
2022/09/19 12:56:42;;;;;;;10.68;1.60;;;17.40;58.50;;;;;;4925099;29;20036;-88
2022/09/19 12:59:18;;;;;;;6.90;1.27;;;17.30;57.50;;;;;;4907895;29;20122;-87
2022/09/19 13:01:56;;;;;;;11.45;1.95;;;17.30;57.40;;;;;;4908548;29;20040;-87
2022/09/19 13:04:57;;;;;;;8.20;1.75;;;17.20;57.80;;;;;;4922892;29;20071;-87
2022/09/19 13:07:30;;;;;;;8.82;1.80;;;17.50;58.50;;;;;;4880547;29;20036;-88
2022/09/19 13:10:13;;;;;;;10.90;1.70;;;17.50;58.40;;;;;;4923248;29;20055;-87
2022/09/19 13:12:57;;;;;;;8.27;2.50;;;17.30;57.30;;;;;;4924728;29;20068;-88
2022/09/19 13:15:31;;;;;;;8.43;1.73;;;17.20;57.60;;;;;;4913951;29;20055;-89
2022/09/19 13:23:35;;;;;;;8.98;2.35;;;17.60;56.00;;;;;;4910660;29;20059;-88
2022/09/19 13:26:27;;;;;;;12.00;2.17;;;17.80;56.00;;;;;;4912565;29;20029;-88
2022/09/19 13:28:55;;;;;;;9.38;1.42;;;17.70;55.00;;;;;;4918288;29;20452;-89
2022/09/19 13:31:30;;;;;;;11.05;2.15;;;17.80;55.70;;;;;;4911835;29;20179;-88
2022/09/19 13:33:59;;;;;;;9.43;1.77;;;18.10;54.60;;;;;;4924041;29;20068;-87
2022/09/19 13:36:26;;;;;;;9.15;1.80;;;17.80;54.20;;;;;;4904047;29;20095;-88
2022/09/19 13:38:58;;;;;;;7.85;1.60;;;17.80;55.00;;;;;;4922932;29;20043;-87
2022/09/19 13:41:31;;;;;;;10.60;1.73;;;17.50;54.90;;;;;;4906379;29;20052;-89
2022/09/19 13:44:08;;;;;;;10.38;1.52;;;17.40;56.30;;;;;;4906321;29;20103;-88
2022/09/19 13:47:07;;;;;;;7.68;1.63;;;17.30;57.00;;;;;;4921475;29;20049;-88
2022/09/19 13:50:04;;;;;;;8.57;1.73;;;17.30;56.30;;;;;;4909437;28;20196;-87